Royal Plm Beach, Florida
Current Conditions -  °F | °C
As of 4:53 PM on Monday 26 Jan 2015 (Local Time) from KPBI Reporting Station
Scattered Clouds Scattered Clouds  
Wind Chill: 70°   Ceiling: Unl
Heat Index: 70°   Visibility: 10mi
Dew Point: 45°   Wind: 23mph
Humidity: 41%   Direction: 280°W
Pressure: 29.85"   Gusts: 31mph
Location:  26.5294°N, 80.3342°W
Report Text: KPBI 262153Z 28020G27KT 10SM FEW035 SCT060 21/07 A2985 RMK AO2 PK WND 26036/2105 SLP107 T02110072
Loading
Personal Weather Stations






























Interactive Weather Map New forecast layout! Learn more

10-Day Weather Forecast

Advertisements
Track Severe Weather on mobile